Time;durP1;ratioP1;P1;durP2;ratioP2;P2;SDS_P1;SDS_P2;PMS_P1;PMS_P2;Temp;Humidity;BMP_temperature;BMP_pressure;BME280_temperature;BME280_humidity;BME280_pressure;Samples;Min_cycle;Max_cycle;Signal;HPM_P1;HPM_P2
2021/04/23 00:00:41;;;;;;;9.17;5.43;;;8.50;60.40;;;;;;5048045;28;20447;-46
2021/04/23 00:03:18;;;;;;;12.10;6.67;;;8.40;60.40;;;;;;5045697;28;20466;-46
2021/04/23 00:05:45;;;;;;;11.43;5.90;;;8.40;60.70;;;;;;5044176;28;20458;-46
2021/04/23 00:08:14;;;;;;;12.00;5.20;;;8.40;60.60;;;;;;5039790;28;20914;-46
2021/04/23 00:10:41;;;;;;;10.47;6.23;;;8.40;60.60;;;;;;5045498;28;20489;-46
2021/04/23 00:13:07;;;;;;;9.07;4.97;;;8.30;60.90;;;;;;5048240;28;20446;-46
2021/04/23 00:15:34;;;;;;;7.50;5.10;;;8.30;61.00;;;;;;5041618;28;20478;-46
2021/04/23 00:18:00;;;;;;;9.17;4.70;;;8.20;61.10;;;;;;5045042;28;20493;-46
2021/04/23 00:20:28;;;;;;;6.37;4.73;;;8.20;61.30;;;;;;5043837;28;20454;-46
2021/04/23 00:22:55;;;;;;;10.43;5.30;;;8.10;61.40;;;;;;5045784;28;21054;-46
2021/04/23 00:25:27;;;;;;;11.20;4.80;;;8.10;61.60;;;;;;5045696;28;20469;-46
2021/04/23 00:28:00;;;;;;;10.17;5.10;;;8.00;61.60;;;;;;5044826;28;20845;-46
2021/04/23 00:30:29;;;;;;;7.13;5.13;;;8.00;61.70;;;;;;5045312;28;20485;-46
2021/04/23 00:32:56;;;;;;;7.97;4.63;;;8.00;61.80;;;;;;5046271;28;20458;-46
2021/04/23 00:35:25;;;;;;;8.93;4.90;;;7.90;61.80;;;;;;5052966;28;20975;-46
2021/04/23 00:37:54;;;;;;;6.03;4.80;;;7.90;61.90;;;;;;5048072;28;20463;-46
2021/04/23 00:40:26;;;;;;;7.20;4.63;;;7.80;62.00;;;;;;5050683;28;20451;-46
2021/04/23 00:42:52;;;;;;;9.77;5.20;;;7.80;62.10;;;;;;5048443;28;20454;-46
2021/04/23 00:45:24;;;;;;;10.57;5.47;;;7.70;62.20;;;;;;5064480;28;20458;-46
2021/04/23 00:47:54;;;;;;;9.70;5.00;;;7.70;62.50;;;;;;5047123;28;20955;-46
2021/04/23 00:50:40;;;;;;;13.20;5.97;;;7.60;62.60;;;;;;5047134;28;20486;-46
2021/04/23 00:53:14;;;;;;;8.53;5.67;;;7.60;62.70;;;;;;5044425;28;20463;-46
2021/04/23 00:55:40;;;;;;;6.80;4.33;;;7.50;62.60;;;;;;5049084;28;20459;-46
2021/04/23 00:58:13;;;;;;;14.40;5.60;;;7.50;62.60;;;;;;5049387;28;20443;-46
2021/04/23 01:00:43;;;;;;;9.27;5.30;;;7.40;62.50;;;;;;5029969;28;21117;-46
2021/04/23 01:03:11;;;;;;;13.30;5.10;;;7.40;62.70;;;;;;5050660;28;20454;-46
2021/04/23 01:05:38;;;;;;;9.33;5.80;;;7.40;62.90;;;;;;5047781;28;20455;-46
2021/04/23 01:08:05;;;;;;;10.67;4.80;;;7.30;63.10;;;;;;5048716;28;20497;-46
2021/04/23 01:10:33;;;;;;;10.43;5.47;;;7.30;63.50;;;;;;5045428;28;20489;-46
2021/04/23 01:12:59;;;;;;;21.50;5.73;;;7.30;63.70;;;;;;5050137;28;20439;-46
2021/04/23 01:15:26;;;;;;;9.53;4.67;;;7.20;63.80;;;;;;5041561;28;20480;-46
2021/04/23 01:17:52;;;;;;;9.33;4.60;;;7.20;64.00;;;;;;5050204;28;20477;-46
2021/04/23 01:20:20;;;;;;;10.83;5.80;;;7.20;64.10;;;;;;5048826;28;20458;-46
2021/04/23 01:22:47;;;;;;;13.20;5.60;;;7.20;64.10;;;;;;5048498;28;20501;-46
2021/04/23 01:25:14;;;;;;;12.87;5.63;;;7.20;64.20;;;;;;5049248;28;20455;-45
2021/04/23 01:27:41;;;;;;;9.83;5.43;;;7.20;64.30;;;;;;5050716;28;20450;-46
2021/04/23 01:30:11;;;;;;;12.80;5.90;;;7.10;64.30;;;;;;5046633;28;20927;-46
2021/04/23 01:32:39;;;;;;;11.03;5.33;;;7.10;64.30;;;;;;5063821;28;20470;-46
2021/04/23 01:35:16;;;;;;;11.73;4.80;;;7.10;64.50;;;;;;5045454;28;20992;-46
2021/04/23 01:37:43;;;;;;;8.90;5.47;;;7.10;64.60;;;;;;5047879;28;20460;-46
2021/04/23 01:40:12;;;;;;;8.30;5.37;;;7.10;64.60;;;;;;5048415;28;20458;-46
2021/04/23 01:42:39;;;;;;;13.13;4.90;;;7.00;64.60;;;;;;5048827;28;20489;-46
2021/04/23 01:45:08;;;;;;;8.40;5.70;;;7.00;64.60;;;;;;5047341;28;20466;-46
2021/04/23 01:47:36;;;;;;;14.37;5.20;;;7.00;64.80;;;;;;5048872;28;20469;-46
2021/04/23 01:50:06;;;;;;;6.97;4.70;;;7.00;64.90;;;;;;5063069;28;20536;-46
2021/04/23 01:52:33;;;;;;;10.60;5.57;;;6.90;64.80;;;;;;5047124;28;20543;-46
2021/04/23 01:54:59;;;;;;;8.90;5.80;;;6.90;64.90;;;;;;5047048;28;20465;-46
2021/04/23 01:57:25;;;;;;;11.23;5.37;;;6.90;64.90;;;;;;5048855;28;20466;-46
2021/04/23 01:59:52;;;;;;;10.20;6.03;;;6.90;64.90;;;;;;5048989;28;20976;-46
2021/04/23 02:02:20;;;;;;;9.83;5.37;;;6.80;65.00;;;;;;5046223;28;20828;-46
2021/04/23 02:04:47;;;;;;;8.77;5.43;;;6.80;65.10;;;;;;5046488;28;20459;-46
2021/04/23 02:07:15;;;;;;;10.57;5.63;;;6.70;65.20;;;;;;5047814;28;20823;-46
2021/04/23 02:09:42;;;;;;;13.73;5.50;;;6.70;65.40;;;;;;5047812;28;21205;-46
2021/04/23 02:12:09;;;;;;;9.90;5.33;;;6.70;65.50;;;;;;5047351;28;20947;-46
2021/04/23 02:14:35;;;;;;;10.27;5.27;;;6.70;65.50;;;;;;5064533;28;20465;-46
2021/04/23 02:17:03;;;;;;;7.23;5.60;;;6.70;65.80;;;;;;5044933;28;20827;-46
2021/04/23 02:19:30;;;;;;;8.33;4.73;;;6.70;65.90;;;;;;5045808;28;20466;-46
2021/04/23 02:21:56;;;;;;;9.20;4.93;;;6.60;65.90;;;;;;5059493;28;20463;-46
2021/04/23 02:24:23;;;;;;;14.57;5.47;;;6.60;66.00;;;;;;5059087;28;20472;-46
2021/04/23 02:26:49;;;;;;;8.20;5.50;;;6.60;66.10;;;;;;5047250;28;20744;-46
2021/04/23 02:29:17;;;;;;;9.50;4.67;;;6.60;66.10;;;;;;5046212;28;20722;-46
2021/04/23 02:31:50;;;;;;;11.03;5.10;;;6.60;66.10;;;;;;5049994;28;20451;-46
2021/04/23 02:34:18;;;;;;;7.67;4.27;;;6.50;66.20;;;;;;5045759;28;20481;-46
2021/04/23 02:36:44;;;;;;;7.67;5.07;;;6.50;66.20;;;;;;5047515;28;20471;-46
2021/04/23 02:39:13;;;;;;;12.40;6.07;;;6.50;66.30;;;;;;5047345;28;20819;-46
2021/04/23 02:41:42;;;;;;;14.53;5.63;;;6.50;66.40;;;;;;5052289;28;20461;-46
2021/04/23 02:44:09;;;;;;;10.23;5.00;;;6.40;66.50;;;;;;5045941;28;20473;-46
2021/04/23 02:46:36;;;;;;;7.83;5.10;;;6.40;66.60;;;;;;5059174;28;20452;-46
2021/04/23 02:49:05;;;;;;;8.50;5.27;;;6.40;66.80;;;;;;5048061;28;20455;-45
2021/04/23 02:51:35;;;;;;;5.90;5.10;;;6.40;66.90;;;;;;5049011;28;20462;-46
2021/04/23 02:54:03;;;;;;;8.17;5.37;;;6.30;67.10;;;;;;5047663;28;20465;-46
2021/04/23 02:56:30;;;;;;;7.40;6.03;;;6.30;67.20;;;;;;5048428;28;20959;-46
2021/04/23 02:58:56;;;;;;;7.43;5.07;;;6.30;67.30;;;;;;5043233;28;20459;-47
2021/04/23 03:01:28;;;;;;;6.73;5.23;;;6.30;67.30;;;;;;5050425;28;20538;-48
2021/04/23 03:03:54;;;;;;;11.00;7.20;;;6.30;67.30;;;;;;5062922;28;20451;-48
2021/04/23 03:06:21;;;;;;;5.60;5.07;;;6.30;67.40;;;;;;5045750;28;20455;-48
2021/04/23 03:08:48;;;;;;;11.20;5.33;;;6.30;67.40;;;;;;5044889;28;20466;-48
2021/04/23 03:11:20;;;;;;;42.83;21.20;;;6.20;67.50;;;;;;5028123;28;20463;-48
2021/04/23 03:13:58;;;;;;;57.00;28.70;;;6.20;67.50;;;;;;5047352;28;20826;-48
2021/04/23 03:16:25;;;;;;;38.03;19.67;;;6.20;67.60;;;;;;5043223;28;21002;-48
2021/04/23 03:18:52;;;;;;;29.83;15.33;;;6.20;67.50;;;;;;5049125;28;20466;-48
2021/04/23 03:21:23;;;;;;;16.27;7.43;;;6.20;67.60;;;;;;5046683;28;20886;-48
2021/04/23 03:23:49;;;;;;;12.43;6.30;;;6.20;67.70;;;;;;5045424;28;20465;-48
2021/04/23 03:26:19;;;;;;;9.83;5.40;;;6.10;67.80;;;;;;5042367;28;21182;-48
2021/04/23 03:28:46;;;;;;;11.63;5.30;;;6.10;67.80;;;;;;5044791;28;20462;-48
2021/04/23 03:31:14;;;;;;;10.20;6.13;;;6.10;67.90;;;;;;5044350;28;20526;-48
2021/04/23 03:33:41;;;;;;;12.83;5.40;;;6.10;67.90;;;;;;5046957;28;20461;-48
2021/04/23 03:36:12;;;;;;;9.87;5.40;;;6.10;67.90;;;;;;5045121;28;20496;-48
2021/04/23 03:38:40;;;;;;;11.50;5.87;;;6.10;67.90;;;;;;5059658;28;20833;-48
2021/04/23 03:41:17;;;;;;;10.83;5.77;;;6.00;67.90;;;;;;5042957;28;20966;-48
2021/04/23 03:43:43;;;;;;;5.97;4.77;;;6.00;67.90;;;;;;5049619;28;20450;-48
2021/04/23 03:46:10;;;;;;;11.70;5.40;;;6.00;68.00;;;;;;5044258;28;21007;-48
2021/04/23 03:48:38;;;;;;;7.50;5.77;;;6.00;68.00;;;;;;5058988;28;20468;-48
2021/04/23 03:51:06;;;;;;;10.20;6.10;;;5.90;67.90;;;;;;5045606;28;20486;-48
2021/04/23 03:53:33;;;;;;;9.17;5.67;;;5.90;68.00;;;;;;5043733;28;20450;-48
2021/04/23 03:55:59;;;;;;;12.17;5.17;;;5.90;68.00;;;;;;5044538;28;20944;-48
2021/04/23 03:58:26;;;;;;;8.33;5.77;;;5.90;68.10;;;;;;5044664;28;20458;-48
2021/04/23 04:00:57;;;;;;;8.10;5.33;;;5.80;68.10;;;;;;5063551;28;20537;-48
2021/04/23 04:03:25;;;;;;;8.43;5.10;;;5.80;68.10;;;;;;5060664;28;20798;-48
2021/04/23 04:05:52;;;;;;;8.80;4.83;;;5.80;68.20;;;;;;5044801;28;20453;-48
2021/04/23 04:08:19;;;;;;;6.27;4.83;;;5.80;68.40;;;;;;5045587;28;20462;-48
2021/04/23 04:10:46;;;;;;;7.00;4.80;;;5.80;68.50;;;;;;5045195;28;21025;-48
2021/04/23 04:13:12;;;;;;;7.90;4.50;;;5.80;68.70;;;;;;5050888;28;20450;-48
2021/04/23 04:15:39;;;;;;;6.60;4.60;;;5.80;68.90;;;;;;5051915;28;20484;-48
2021/04/23 04:18:06;;;;;;;10.70;5.67;;;5.80;69.00;;;;;;5048516;28;20820;-48
2021/04/23 04:20:35;;;;;;;12.20;5.67;;;5.80;69.00;;;;;;5048324;28;20462;-48
2021/04/23 04:23:05;;;;;;;18.43;7.03;;;5.70;69.00;;;;;;5047467;28;20465;-48
2021/04/23 04:25:38;;;;;;;10.63;6.33;;;5.70;69.10;;;;;;5052200;28;20837;-48
2021/04/23 04:28:07;;;;;;;9.77;5.80;;;5.70;69.20;;;;;;5049718;28;20955;-48
2021/04/23 04:30:35;;;;;;;9.60;6.47;;;5.70;69.20;;;;;;5049882;28;20883;-48
2021/04/23 04:33:01;;;;;;;10.40;6.63;;;5.70;69.10;;;;;;5048857;28;20459;-48
2021/04/23 04:35:29;;;;;;;12.90;6.03;;;5.70;69.10;;;;;;5046750;28;20812;-48
2021/04/23 04:37:56;;;;;;;11.47;6.90;;;5.70;69.10;;;;;;5048748;28;20466;-48
2021/04/23 04:40:24;;;;;;;8.60;5.83;;;5.70;69.30;;;;;;5048194;28;20464;-48
2021/04/23 04:42:51;;;;;;;12.97;6.10;;;5.70;69.40;;;;;;5048481;28;20962;-48
2021/04/23 04:45:21;;;;;;;12.93;5.60;;;5.70;69.50;;;;;;5048578;28;20459;-48
2021/04/23 04:47:47;;;;;;;8.53;6.97;;;5.70;69.50;;;;;;5048400;28;20466;-48
2021/04/23 04:50:18;;;;;;;13.27;8.30;;;5.70;69.60;;;;;;5049385;28;20488;-48
2021/04/23 04:52:45;;;;;;;17.00;7.10;;;5.70;69.50;;;;;;5044446;28;21057;-48
2021/04/23 04:55:13;;;;;;;11.80;7.77;;;5.70;69.60;;;;;;5049469;28;20522;-48
2021/04/23 04:57:40;;;;;;;15.07;7.70;;;5.70;69.60;;;;;;5046545;28;20454;-48
2021/04/23 05:00:11;;;;;;;10.93;7.90;;;5.70;69.70;;;;;;5048229;28;20846;-48
2021/04/23 05:02:38;;;;;;;11.20;7.63;;;5.70;69.80;;;;;;5050255;28;20985;-48
2021/04/23 05:05:06;;;;;;;12.67;7.00;;;5.70;69.70;;;;;;5048174;28;20832;-48
2021/04/23 05:07:32;;;;;;;10.40;9.30;;;5.80;69.70;;;;;;5048533;28;20474;-48
2021/04/23 05:09:59;;;;;;;13.33;9.13;;;5.80;69.80;;;;;;5046108;28;20493;-48
2021/04/23 05:12:25;;;;;;;10.83;7.30;;;5.80;69.90;;;;;;5048412;28;20534;-48
2021/04/23 05:14:51;;;;;;;12.03;7.73;;;5.80;69.90;;;;;;5048206;28;20450;-48
2021/04/23 05:17:18;;;;;;;10.63;6.60;;;5.90;70.10;;;;;;5048294;28;20474;-48
2021/04/23 05:19:44;;;;;;;10.53;5.83;;;5.90;70.00;;;;;;5062617;28;20459;-48
2021/04/23 05:22:11;;;;;;;10.30;7.03;;;5.90;70.00;;;;;;5047282;28;20497;-48
2021/04/23 05:24:37;;;;;;;9.87;5.60;;;6.00;70.00;;;;;;5046960;28;20463;-48
2021/04/23 05:27:04;;;;;;;17.70;6.40;;;6.00;70.00;;;;;;5048410;28;20478;-48
2021/04/23 05:29:33;;;;;;;11.47;5.97;;;6.00;70.10;;;;;;5048770;28;21107;-48
2021/04/23 05:32:01;;;;;;;10.40;5.93;;;6.10;70.40;;;;;;5046202;28;20817;-48
2021/04/23 05:34:29;;;;;;;11.47;5.27;;;6.10;70.40;;;;;;5049002;28;20454;-48
2021/04/23 05:36:56;;;;;;;9.80;6.90;;;6.10;70.40;;;;;;5047559;28;20462;-48
2021/04/23 05:39:22;;;;;;;11.20;6.33;;;6.20;70.40;;;;;;5045049;28;20613;-48
2021/04/23 05:41:48;;;;;;;11.20;6.47;;;6.20;70.50;;;;;;5049364;28;20826;-48
2021/04/23 05:44:15;;;;;;;8.10;5.43;;;6.30;70.60;;;;;;5044291;28;20467;-48
2021/04/23 05:46:41;;;;;;;11.73;6.63;;;6.30;70.80;;;;;;5046400;28;20914;-48
2021/04/23 05:49:07;;;;;;;11.30;6.77;;;6.40;71.00;;;;;;5047045;28;20955;-48
2021/04/23 05:51:34;;;;;;;13.73;7.77;;;6.50;70.90;;;;;;5049598;28;20461;-48
2021/04/23 05:54:03;;;;;;;16.83;7.40;;;6.60;70.60;;;;;;5061223;28;20907;-48
2021/04/23 05:56:29;;;;;;;10.87;6.90;;;6.70;70.30;;;;;;5046139;28;20643;-48
2021/04/23 05:58:56;;;;;;;17.13;7.00;;;6.80;70.00;;;;;;5041671;28;20513;-48
2021/04/23 06:01:22;;;;;;;11.13;6.90;;;6.90;69.80;;;;;;5047522;28;20458;-49
2021/04/23 06:03:49;;;;;;;11.57;7.10;;;7.00;70.10;;;;;;5044288;28;21824;-49
2021/04/23 06:06:16;;;;;;;15.00;6.77;;;7.10;69.70;;;;;;5048141;28;20454;-49
2021/04/23 06:08:42;;;;;;;11.10;6.97;;;7.20;69.30;;;;;;5050479;28;20484;-49
2021/04/23 06:11:16;;;;;;;15.70;8.13;;;7.30;68.60;;;;;;5048340;28;20491;-49
2021/04/23 06:13:44;;;;;;;12.33;6.60;;;7.40;68.10;;;;;;5047080;28;20457;-49
2021/04/23 06:16:10;;;;;;;9.13;6.83;;;7.60;67.20;;;;;;5045801;28;20476;-49
2021/04/23 06:18:37;;;;;;;13.90;7.27;;;7.70;67.30;;;;;;5062963;28;20466;-49
2021/04/23 06:21:05;;;;;;;14.70;8.20;;;7.80;67.30;;;;;;5058986;28;20514;-49
2021/04/23 06:23:33;;;;;;;11.23;7.23;;;7.80;67.20;;;;;;5047022;28;20466;-49
2021/04/23 06:26:00;;;;;;;15.37;8.07;;;8.00;66.40;;;;;;5047085;28;20477;-49
2021/04/23 06:28:27;;;;;;;18.73;9.17;;;8.10;66.20;;;;;;5043648;28;20950;-49
2021/04/23 06:30:53;;;;;;;16.70;8.67;;;8.20;65.90;;;;;;5045002;28;20492;-49
2021/04/23 06:33:23;;;;;;;18.97;8.03;;;8.30;65.50;;;;;;5043706;28;20457;-49
2021/04/23 06:35:49;;;;;;;14.23;7.20;;;8.40;65.00;;;;;;5049357;28;20454;-49
2021/04/23 06:38:16;;;;;;;17.13;10.53;;;8.60;64.80;;;;;;5048565;28;20465;-49
2021/04/23 06:40:42;;;;;;;12.70;8.10;;;8.70;64.30;;;;;;5047488;28;20454;-49
2021/04/23 06:43:09;;;;;;;17.23;9.80;;;8.90;63.70;;;;;;5050215;28;20557;-49
2021/04/23 06:45:35;;;;;;;19.67;8.20;;;9.00;63.10;;;;;;5050080;28;20967;-49
2021/04/23 06:48:03;;;;;;;10.13;7.17;;;9.10;63.10;;;;;;5046594;28;20454;-49
2021/04/23 06:50:30;;;;;;;15.83;6.40;;;9.20;62.50;;;;;;5063275;28;20486;-49
2021/04/23 06:52:57;;;;;;;10.97;6.40;;;9.40;61.60;;;;;;5048698;28;20467;-49
2021/04/23 06:55:24;;;;;;;12.90;6.63;;;9.50;61.60;;;;;;5049447;28;20481;-49
2021/04/23 06:57:51;;;;;;;11.73;5.80;;;9.70;60.30;;;;;;5044930;28;20978;-49
2021/04/23 07:00:21;;;;;;;13.43;7.10;;;9.80;60.40;;;;;;5046664;28;20517;-49
2021/04/23 07:02:47;;;;;;;13.57;7.43;;;10.00;60.00;;;;;;5047921;28;20860;-49
2021/04/23 07:05:14;;;;;;;11.40;6.90;;;10.20;58.40;;;;;;5045087;28;20454;-49
2021/04/23 07:07:41;;;;;;;9.33;6.37;;;10.30;57.90;;;;;;5040305;28;20498;-49
2021/04/23 07:10:11;;;;;;;9.87;6.20;;;10.50;58.10;;;;;;5046454;28;20482;-49
2021/04/23 07:12:37;;;;;;;10.73;6.57;;;10.70;57.30;;;;;;5040291;28;20486;-49
2021/04/23 07:15:05;;;;;;;11.03;6.27;;;10.80;56.70;;;;;;5042264;28;20451;-48
2021/04/23 07:17:32;;;;;;;10.20;6.60;;;10.90;56.20;;;;;;5043500;28;20474;-49
2021/04/23 07:19:58;;;;;;;10.50;5.70;;;11.10;55.90;;;;;;5044459;28;21044;-49
2021/04/23 07:22:25;;;;;;;13.87;6.63;;;11.30;55.20;;;;;;5047333;28;20469;-49
2021/04/23 07:24:51;;;;;;;10.20;6.80;;;11.40;54.80;;;;;;5041300;28;20475;-49
2021/04/23 07:27:17;;;;;;;12.97;6.83;;;11.60;54.10;;;;;;5048267;28;20462;-49
2021/04/23 07:29:44;;;;;;;13.40;7.13;;;11.80;53.80;;;;;;5045246;28;20552;-49
2021/04/23 07:32:10;;;;;;;9.33;6.20;;;12.00;53.70;;;;;;5045079;28;20519;-49
2021/04/23 07:34:37;;;;;;;12.23;6.77;;;12.20;53.70;;;;;;5045530;28;20458;-49
2021/04/23 07:37:04;;;;;;;14.10;5.90;;;12.30;53.20;;;;;;5044145;28;20458;-49
2021/04/23 07:39:30;;;;;;;10.50;6.63;;;12.50;53.10;;;;;;5043905;28;20493;-49
2021/04/23 07:41:57;;;;;;;14.83;7.70;;;12.60;52.40;;;;;;5046495;28;20447;-49
2021/04/23 07:44:25;;;;;;;10.23;6.30;;;12.70;51.80;;;;;;5061011;28;20466;-49
2021/04/23 07:46:51;;;;;;;12.87;7.13;;;12.90;52.10;;;;;;5041251;28;20466;-49
2021/04/23 07:49:17;;;;;;;9.60;5.33;;;13.10;51.20;;;;;;5045187;28;20458;-49
2021/04/23 07:51:46;;;;;;;12.10;6.60;;;13.20;50.50;;;;;;5048278;28;20534;-49
2021/04/23 07:54:12;;;;;;;11.33;5.73;;;13.30;50.00;;;;;;5047655;28;21085;-49
2021/04/23 07:56:40;;;;;;;16.43;7.63;;;13.50;49.40;;;;;;5044981;28;20562;-49
2021/04/23 07:59:06;;;;;;;16.33;8.57;;;13.60;49.20;;;;;;5045471;28;20609;-49
2021/04/23 08:01:33;;;;;;;12.80;7.70;;;13.70;49.20;;;;;;5047859;28;20449;-49
2021/04/23 08:04:00;;;;;;;13.07;7.67;;;13.80;49.20;;;;;;5047149;28;20443;-49
2021/04/23 08:06:26;;;;;;;13.23;7.70;;;14.00;48.70;;;;;;5043542;28;20452;-49
2021/04/23 08:08:53;;;;;;;16.07;7.20;;;14.10;48.50;;;;;;5046994;28;20462;-49
2021/04/23 08:11:19;;;;;;;18.13;8.60;;;14.30;48.80;;;;;;5047997;28;20493;-49
2021/04/23 08:13:46;;;;;;;11.70;6.80;;;14.40;48.50;;;;;;5063716;28;20450;-49
2021/04/23 08:16:12;;;;;;;15.30;7.00;;;14.60;48.10;;;;;;5042643;28;20479;-49
2021/04/23 08:18:39;;;;;;;10.30;7.00;;;14.80;47.30;;;;;;5046313;28;20438;-49
2021/04/23 08:21:07;;;;;;;14.77;7.20;;;14.90;47.20;;;;;;5045905;28;20454;-49
2021/04/23 08:23:34;;;;;;;12.60;6.77;;;15.00;46.60;;;;;;5045104;28;20885;-49
2021/04/23 08:26:03;;;;;;;16.33;6.77;;;15.20;46.20;;;;;;5058993;28;21459;-49
2021/04/23 08:28:32;;;;;;;14.77;7.77;;;15.30;45.90;;;;;;5046398;28;20466;-49
2021/04/23 08:30:59;;;;;;;11.73;7.50;;;15.50;45.90;;;;;;5045872;28;20841;-49
2021/04/23 08:33:26;;;;;;;12.37;7.77;;;15.70;45.50;;;;;;5045830;28;20458;-49
2021/04/23 08:35:53;;;;;;;8.43;7.10;;;15.80;45.10;;;;;;5049419;28;20439;-49
2021/04/23 08:38:24;;;;;;;12.23;7.67;;;15.80;44.60;;;;;;5047752;28;20537;-49
2021/04/23 08:40:56;;;;;;;13.63;6.80;;;15.90;44.80;;;;;;5048375;28;20820;-49
2021/04/23 08:43:24;;;;;;;12.83;6.70;;;16.10;45.00;;;;;;5042892;28;20565;-49
2021/04/23 08:45:51;;;;;;;12.60;6.20;;;16.30;44.10;;;;;;5046655;28;20450;-49
2021/04/23 08:48:19;;;;;;;11.17;7.20;;;16.50;43.90;;;;;;5048063;28;20894;-49
2021/04/23 08:50:47;;;;;;;9.60;5.97;;;16.80;43.40;;;;;;5043939;28;20486;-49
2021/04/23 08:53:15;;;;;;;17.87;8.07;;;17.00;43.00;;;;;;5046020;28;20985;-49
2021/04/23 08:55:41;;;;;;;12.23;7.37;;;17.30;42.70;;;;;;5047157;28;20462;-50
2021/04/23 08:58:12;;;;;;;11.60;7.37;;;17.50;42.30;;;;;;5047774;28;20569;-49
2021/04/23 09:00:38;;;;;;;9.17;6.57;;;17.70;41.50;;;;;;5048804;28;20454;-49
2021/04/23 09:03:08;;;;;;;14.10;7.00;;;17.90;41.10;;;;;;5065854;28;21251;-49
2021/04/23 09:05:35;;;;;;;14.90;7.63;;;18.20;41.00;;;;;;5050862;28;20942;-49
2021/04/23 09:08:07;;;;;;;11.67;7.17;;;18.50;40.70;;;;;;5052444;28;20455;-49
2021/04/23 09:10:38;;;;;;;10.53;6.67;;;18.80;40.30;;;;;;5051066;28;20596;-48
2021/04/23 09:13:10;;;;;;;16.33;7.47;;;19.10;39.80;;;;;;5050593;28;20458;-49
2021/04/23 09:15:38;;;;;;;13.50;7.63;;;19.40;38.80;;;;;;5045217;28;20478;-49
2021/04/23 09:18:18;;;;;;;12.17;7.00;;;19.70;38.60;;;;;;5048808;28;20502;-49
2021/04/23 09:20:47;;;;;;;13.03;6.70;;;20.00;38.10;;;;;;5064931;28;20478;-49
2021/04/23 09:23:20;;;;;;;12.80;7.40;;;20.40;37.20;;;;;;5050862;28;20483;-49
2021/04/23 09:25:54;;;;;;;13.80;7.97;;;20.70;36.70;;;;;;5046209;28;20505;-48
2021/04/23 09:28:36;;;;;;;12.80;7.33;;;21.10;35.70;;;;;;5046266;28;20893;-49
2021/04/23 09:31:28;;;;;;;10.40;7.20;;;21.30;35.60;;;;;;5048739;28;20486;-48
2021/04/23 09:34:00;;;;;;;14.33;7.60;;;21.60;35.30;;;;;;5046997;28;20936;-49
2021/04/23 09:36:31;;;;;;;11.17;6.97;;;21.80;34.70;;;;;;5046363;28;21002;-49
2021/04/23 09:39:15;;;;;;;16.13;6.73;;;22.10;34.10;;;;;;5048701;28;20458;-48
2021/04/23 09:41:44;;;;;;;8.60;6.80;;;22.40;33.70;;;;;;5047346;28;20488;-48
2021/04/23 09:44:34;;;;;;;10.57;6.53;;;22.60;33.80;;;;;;5047866;28;20549;-47
2021/04/23 09:47:17;;;;;;;12.00;7.30;;;22.90;32.80;;;;;;5048458;28;20475;-48
2021/04/23 09:49:45;;;;;;;11.20;6.23;;;23.00;31.90;;;;;;5046858;28;20462;-46
2021/04/23 09:52:14;;;;;;;12.80;7.20;;;23.20;31.90;;;;;;5045998;28;20468;-47
2021/04/23 09:54:47;;;;;;;11.50;7.27;;;23.50;31.70;;;;;;5052914;28;20442;-47
2021/04/23 09:57:36;;;;;;;11.50;6.10;;;23.70;31.90;;;;;;5046649;28;20478;-47
2021/04/23 10:00:12;;;;;;;12.00;7.17;;;23.90;30.90;;;;;;5046999;28;20462;-47
2021/04/23 10:02:38;;;;;;;9.10;6.37;;;24.10;31.00;;;;;;5044241;28;20919;-47
2021/04/23 10:05:06;;;;;;;9.50;6.23;;;24.30;30.70;;;;;;5049682;28;20533;-47
2021/04/23 10:07:34;;;;;;;10.87;6.20;;;24.50;30.30;;;;;;5045787;28;20554;-47
2021/04/23 10:10:11;;;;;;;9.90;6.40;;;24.60;30.90;;;;;;5041200;28;20482;-47
2021/04/23 10:12:54;;;;;;;11.43;6.40;;;24.80;30.40;;;;;;5047009;28;20489;-47
2021/04/23 10:15:25;;;;;;;12.40;6.07;;;25.00;29.20;;;;;;5042832;28;20470;-47
2021/04/23 10:17:55;;;;;;;8.53;6.10;;;25.10;29.20;;;;;;5043011;28;20476;-47
2021/04/23 10:20:24;;;;;;;10.77;6.20;;;25.20;29.50;;;;;;5044454;28;20461;-47
2021/04/23 10:22:51;;;;;;;8.43;6.60;;;25.40;29.10;;;;;;5044600;28;20938;-47
2021/04/23 10:25:18;;;;;;;10.90;6.83;;;25.40;28.40;;;;;;5044707;28;20457;-47
2021/04/23 10:27:46;;;;;;;8.67;6.60;;;25.40;28.40;;;;;;5045834;28;20860;-47
2021/04/23 10:30:19;;;;;;;9.93;6.30;;;25.30;28.80;;;;;;5045695;28;20564;-47
2021/04/23 10:33:05;;;;;;;9.23;6.43;;;25.00;29.20;;;;;;5046289;28;20458;-47
2021/04/23 10:35:32;;;;;;;8.97;5.43;;;24.80;29.50;;;;;;5045489;28;20485;-47
2021/04/23 10:38:03;;;;;;;10.90;6.60;;;24.70;29.40;;;;;;5041677;28;20463;-47
2021/04/23 10:40:30;;;;;;;14.87;6.57;;;24.60;29.70;;;;;;5047282;28;20450;-47
2021/04/23 10:43:03;;;;;;;9.13;5.50;;;24.30;29.20;;;;;;5047549;28;20493;-47
2021/04/23 10:45:39;;;;;;;8.20;5.60;;;24.10;29.30;;;;;;5049593;28;20951;-47
2021/04/23 10:48:12;;;;;;;7.50;5.40;;;23.90;30.50;;;;;;5048170;28;20461;-47
2021/04/23 10:50:50;;;;;;;7.30;6.00;;;23.80;30.50;;;;;;5048788;28;20490;-47
2021/04/23 10:53:44;;;;;;;8.60;6.10;;;23.70;30.10;;;;;;5060092;28;20463;-47
2021/04/23 10:56:34;;;;;;;6.07;5.47;;;23.60;29.70;;;;;;5047388;28;20974;-47
2021/04/23 10:59:06;;;;;;;7.37;5.17;;;23.50;30.10;;;;;;5044937;28;20469;-47
2021/04/23 11:01:40;;;;;;;14.73;6.03;;;23.40;29.50;;;;;;5049706;28;20454;-46
2021/04/23 11:04:13;;;;;;;12.63;6.07;;;23.30;29.40;;;;;;5047302;28;20469;-46
2021/04/23 11:06:43;;;;;;;12.00;6.20;;;23.00;29.80;;;;;;5048680;28;20449;-48
2021/04/23 11:09:11;;;;;;;8.53;6.10;;;22.80;29.80;;;;;;5047584;28;20545;-48
2021/04/23 11:11:42;;;;;;;6.47;5.20;;;22.60;30.50;;;;;;5048724;28;20478;-48
2021/04/23 11:14:28;;;;;;;9.77;4.90;;;22.50;30.50;;;;;;5047505;28;20461;-48
2021/04/23 11:17:17;;;;;;;12.53;5.23;;;22.40;30.60;;;;;;5047021;28;20564;-48
2021/04/23 11:19:45;;;;;;;9.73;5.07;;;22.30;30.60;;;;;;5048888;28;20920;-47
2021/04/23 11:22:18;;;;;;;5.20;4.57;;;22.20;30.80;;;;;;5048694;28;20461;-47
2021/04/23 11:24:59;;;;;;;5.73;4.03;;;22.20;30.20;;;;;;5046363;28;20455;-48
2021/04/23 11:27:26;;;;;;;9.40;4.93;;;22.00;30.90;;;;;;5061300;28;20476;-48
2021/04/23 11:29:52;;;;;;;9.80;5.27;;;21.70;32.40;;;;;;5045852;28;20635;-48
2021/04/23 11:32:19;;;;;;;8.03;4.67;;;21.50;30.80;;;;;;5065108;28;20453;-48
2021/04/23 11:35:10;;;;;;;8.23;5.70;;;21.20;31.40;;;;;;5049611;28;20912;-47
2021/04/23 11:37:42;;;;;;;11.10;4.80;;;21.00;31.80;;;;;;5049284;28;20466;-47
2021/04/23 11:40:17;;;;;;;7.83;5.00;;;20.90;31.60;;;;;;5048360;28;20553;-46
2021/04/23 11:42:48;;;;;;;7.93;4.87;;;20.80;31.50;;;;;;5063856;28;20450;-46
2021/04/23 11:45:24;;;;;;;8.47;4.77;;;20.80;32.70;;;;;;5048956;28;20492;-46
2021/04/23 11:47:51;;;;;;;5.27;4.73;;;20.80;32.10;;;;;;5048995;28;20450;-48
2021/04/23 11:50:35;;;;;;;9.33;5.70;;;20.90;31.10;;;;;;5048501;28;20526;-48
2021/04/23 11:53:08;;;;;;;7.93;4.80;;;20.90;31.00;;;;;;5047182;28;20455;-48
2021/04/23 11:55:44;;;;;;;8.17;4.80;;;20.80;31.10;;;;;;5062644;28;20457;-48
2021/04/23 11:58:19;;;;;;;8.77;4.33;;;20.80;31.20;;;;;;5048696;28;20993;-48
2021/04/23 12:00:52;;;;;;;8.73;5.37;;;20.70;31.30;;;;;;5063885;28;20454;-47
2021/04/23 12:03:20;;;;;;;8.20;4.50;;;20.70;31.00;;;;;;5047722;28;20951;-48
2021/04/23 12:05:49;;;;;;;6.40;4.80;;;20.60;31.20;;;;;;5052314;28;20963;-47
2021/04/23 12:08:17;;;;;;;8.60;5.10;;;20.50;31.50;;;;;;5048119;28;20454;-47
2021/04/23 12:11:02;;;;;;;9.70;5.60;;;20.40;31.90;;;;;;5046696;28;20478;-47
2021/04/23 12:13:38;;;;;;;7.20;4.63;;;20.30;31.90;;;;;;5063742;28;20451;-48
2021/04/23 12:16:11;;;;;;;8.17;5.17;;;20.40;31.90;;;;;;5049615;28;20489;-47
2021/04/23 12:18:46;;;;;;;10.67;5.23;;;20.50;31.80;;;;;;5048069;28;20533;-47
2021/04/23 12:21:14;;;;;;;10.27;5.93;;;20.50;32.00;;;;;;5048046;28;20462;-47
2021/04/23 12:23:41;;;;;;;6.50;4.33;;;20.50;31.70;;;;;;5047814;28;20469;-47
2021/04/23 12:26:10;;;;;;;7.20;4.63;;;20.60;31.40;;;;;;5048302;28;20454;-47
2021/04/23 12:28:44;;;;;;;6.63;4.50;;;20.70;30.70;;;;;;5047326;28;20454;-48
2021/04/23 12:31:32;;;;;;;6.60;4.07;;;20.70;30.90;;;;;;5051749;28;20485;-47
2021/04/23 12:34:05;;;;;;;9.87;4.90;;;20.70;31.50;;;;;;5052250;28;20450;-47
2021/04/23 12:36:35;;;;;;;14.23;4.83;;;20.70;30.70;;;;;;5050493;28;20445;-47
2021/04/23 12:39:09;;;;;;;5.90;4.30;;;20.70;30.90;;;;;;5051190;28;20467;-48
2021/04/23 12:41:41;;;;;;;12.80;5.30;;;20.80;30.70;;;;;;5050872;28;20442;-48
2021/04/23 12:44:10;;;;;;;7.90;5.53;;;20.90;30.80;;;;;;5050334;28;20796;-47
2021/04/23 12:46:43;;;;;;;6.00;4.57;;;20.90;30.60;;;;;;5048368;28;20790;-47
2021/04/23 12:49:12;;;;;;;8.77;5.30;;;21.00;30.60;;;;;;5051649;28;20451;-48
2021/04/23 12:51:58;;;;;;;11.60;4.63;;;20.90;30.90;;;;;;5051279;28;20501;-48
2021/04/23 12:54:34;;;;;;;9.97;5.17;;;20.80;31.80;;;;;;5051429;28;20458;-47
2021/04/23 12:57:11;;;;;;;9.47;5.03;;;20.90;31.20;;;;;;5052524;28;20450;-47